createdAt,value
2023-02-24T00:02:09.048Z,2.08
2023-02-24T00:04:42.019Z,2.71
2023-02-24T00:07:17.939Z,3.23
2023-02-24T00:09:58.871Z,3.14
2023-02-24T00:12:30.168Z,3.13
2023-02-24T00:14:59.203Z,3.41
2023-02-24T00:17:31.187Z,3.81
2023-02-24T00:20:00.272Z,3.55
2023-02-24T00:22:29.316Z,3.45
2023-02-24T00:25:02.141Z,4.02
2023-02-24T00:27:33.434Z,4.59
2023-02-24T00:30:06.185Z,4.47
2023-02-24T00:32:37.233Z,4.38
2023-02-24T00:35:06.923Z,4.71
2023-02-24T00:37:35.909Z,5.02
2023-02-24T00:40:11.898Z,5.27
2023-02-24T00:42:45.544Z,5.04
2023-02-24T00:45:17.847Z,5.81
2023-02-24T00:47:47.362Z,5.64
2023-02-24T00:50:16.407Z,5.44
2023-02-24T00:52:45.449Z,6.12
2023-02-24T00:55:15.951Z,5.50
2023-02-24T00:57:48.936Z,4.70
2023-02-24T01:00:18.716Z,4.40
2023-02-24T01:02:50.454Z,3.96
2023-02-24T01:05:20.460Z,3.07
2023-02-24T01:07:49.402Z,2.70
2023-02-24T01:10:19.086Z,2.95
2023-02-24T01:12:50.952Z,2.56
2023-02-24T01:15:22.705Z,2.52
2023-02-24T01:17:51.901Z,2.42
2023-02-24T01:20:20.991Z,1.56
2023-02-24T01:22:54.459Z,1.72
2023-02-24T01:25:23.623Z,1.13
2023-02-24T01:27:57.091Z,1.23
2023-02-24T01:30:26.047Z,1.05
2023-02-24T01:32:55.036Z,0.78
2023-02-24T01:35:25.187Z,0.96
2023-02-24T01:37:54.166Z,0.77
2023-02-24T01:40:23.075Z,0.66
2023-02-24T01:42:59.523Z,0.09
2023-02-24T01:45:37.538Z,-0.10
2023-02-24T01:48:13.727Z,-0.39
2023-02-24T01:50:43.022Z,-0.53
2023-02-24T01:53:12.682Z,-1.06
2023-02-24T01:55:47.959Z,-0.68
2023-02-24T01:58:26.148Z,-1.12
2023-02-24T02:00:58.671Z,-0.85
2023-02-24T02:03:34.700Z,-1.39
2023-02-24T02:06:12.580Z,-1.06
2023-02-24T02:08:43.978Z,-1.09
2023-02-24T02:11:23.581Z,-0.98
2023-02-24T02:13:54.538Z,-1.21
2023-02-24T02:16:46.512Z,-1.41
2023-02-24T02:19:27.427Z,-1.25
2023-02-24T02:22:07.690Z,-1.26
2023-02-24T02:25:26.334Z,-1.44
2023-02-24T02:28:32.398Z,-1.29
2023-02-24T02:31:32.978Z,-1.43
2023-02-24T02:34:17.803Z,-1.48
2023-02-24T02:37:06.585Z,-1.53
2023-02-24T02:40:01.296Z,-1.50
2023-02-24T02:43:14.985Z,-1.68
2023-02-24T02:45:48.439Z,-1.61
2023-02-24T02:48:23.087Z,-1.51
2023-02-24T02:51:05.060Z,-1.53
2023-02-24T02:53:38.368Z,-1.69
2023-02-24T02:56:14.082Z,-1.76
2023-02-24T02:58:49.764Z,-1.79
2023-02-24T03:01:22.556Z,-1.71
2023-02-24T03:03:58.113Z,-1.88
2023-02-24T03:06:49.681Z,-1.91
2023-02-24T03:09:33.586Z,-1.81
2023-02-24T03:12:13.590Z,-1.94
2023-02-24T03:14:52.531Z,-1.83
2023-02-24T03:17:30.279Z,-1.87
2023-02-24T03:20:21.061Z,-1.99
2023-02-24T03:23:12.643Z,-2.07
2023-02-24T03:25:52.857Z,-2.00
2023-02-24T03:28:34.860Z,-1.96
2023-02-24T03:31:19.186Z,-2.00
2023-02-24T03:34:04.535Z,-2.01
2023-02-24T03:36:34.075Z,-2.15
2023-02-24T03:39:06.504Z,-2.14
2023-02-24T03:42:02.096Z,-2.15
2023-02-24T03:44:34.201Z,-2.28
2023-02-24T03:47:04.208Z,-2.64
2023-02-24T03:49:33.610Z,-2.36
2023-02-24T03:52:25.020Z,-2.40
2023-02-24T03:55:18.012Z,-2.34
2023-02-24T03:58:15.262Z,-2.36
2023-02-24T04:00:56.390Z,-2.76
2023-02-24T04:03:39.192Z,-2.56
2023-02-24T04:06:42.961Z,-2.39
2023-02-24T04:09:30.078Z,-2.45
2023-02-24T04:12:19.585Z,-2.39
2023-02-24T04:15:27.806Z,-2.58
2023-02-24T04:18:19.604Z,-2.49
2023-02-24T04:20:54.030Z,-2.44
2023-02-24T04:23:28.136Z,-2.71
2023-02-24T04:25:57.123Z,-2.83
2023-02-24T04:28:29.243Z,-2.65
2023-02-24T04:31:10.967Z,-2.62
2023-02-24T04:33:41.887Z,-2.60
2023-02-24T04:36:13.689Z,-2.60
2023-02-24T04:38:43.760Z,-2.67
2023-02-24T04:41:22.053Z,-2.66
2023-02-24T04:43:51.809Z,-2.62
2023-02-24T04:46:21.507Z,-2.59
2023-02-24T04:48:51.830Z,-2.96
2023-02-24T04:51:21.635Z,-2.86
2023-02-24T04:53:51.023Z,-2.80
2023-02-24T04:56:20.150Z,-2.78
2023-02-24T04:58:49.445Z,-2.70
2023-02-24T05:01:18.780Z,-2.77
2023-02-24T05:03:48.452Z,-2.82
2023-02-24T05:06:18.744Z,-2.75
2023-02-24T05:08:48.000Z,-2.65
2023-02-24T05:11:19.451Z,-2.91
2023-02-24T05:13:50.050Z,-2.90
2023-02-24T05:16:21.363Z,-2.89
2023-02-24T05:19:17.048Z,-2.85
2023-02-24T05:21:52.472Z,-2.72
2023-02-24T05:24:21.693Z,-2.92
2023-02-24T05:26:51.161Z,-2.81
2023-02-24T05:29:20.091Z,-3.01
2023-02-24T05:31:53.989Z,-2.84
2023-02-24T05:34:25.171Z,-2.92
2023-02-24T05:36:54.781Z,-2.82
2023-02-24T05:39:26.072Z,-2.91
2023-02-24T05:41:57.715Z,-2.85
2023-02-24T05:44:28.173Z,-2.91
2023-02-24T05:47:01.460Z,-2.98
2023-02-24T05:49:34.742Z,-2.97
2023-02-24T05:52:09.740Z,-3.02
2023-02-24T05:54:44.089Z,-3.00
2023-02-24T05:57:17.890Z,-3.22
2023-02-24T05:59:47.154Z,-2.97
2023-02-24T06:02:18.269Z,-3.01
2023-02-24T06:04:54.938Z,-3.23
2023-02-24T06:07:27.089Z,-3.30
2023-02-24T06:10:00.973Z,-3.12
2023-02-24T06:12:32.761Z,-3.08
2023-02-24T06:15:03.164Z,-3.08
2023-02-24T06:17:32.133Z,-3.01
2023-02-24T06:20:01.278Z,-3.27
2023-02-24T06:22:44.292Z,-3.10
2023-02-24T06:25:31.960Z,-3.10
2023-02-24T06:28:02.630Z,-3.06
2023-02-24T06:30:33.589Z,-3.09
2023-02-24T06:33:02.567Z,-3.23
2023-02-24T06:35:33.691Z,-3.30
2023-02-24T06:38:02.754Z,-3.16
2023-02-24T06:40:32.247Z,-3.27
2023-02-24T06:43:01.254Z,-3.25
2023-02-24T06:45:31.729Z,-3.33
2023-02-24T06:48:00.669Z,-3.12
2023-02-24T06:50:29.654Z,-3.19
2023-02-24T06:53:01.588Z,-3.12
2023-02-24T06:55:30.545Z,-3.19
2023-02-24T06:58:05.060Z,-3.05
2023-02-24T07:00:39.421Z,-3.07
2023-02-24T07:03:16.398Z,-3.25
2023-02-24T07:05:54.838Z,-3.16
2023-02-24T07:08:28.129Z,-3.14
2023-02-24T07:11:00.669Z,-3.20
2023-02-24T07:13:30.800Z,-3.18
2023-02-24T07:16:08.004Z,-3.51
2023-02-24T07:18:41.369Z,-3.48
2023-02-24T07:21:15.004Z,-3.52
2023-02-24T07:23:50.443Z,-3.29
2023-02-24T07:26:23.985Z,-3.29
2023-02-24T07:28:55.787Z,-3.33
2023-02-24T07:31:26.861Z,-3.50
2023-02-24T07:34:02.852Z,-3.52
2023-02-24T07:36:35.834Z,-3.44
2023-02-24T07:39:04.884Z,-3.44
2023-02-24T07:41:36.845Z,-3.29
2023-02-24T07:44:10.261Z,-3.34
2023-02-24T07:46:39.245Z,-3.54
2023-02-24T07:49:10.791Z,-3.54
2023-02-24T07:51:43.865Z,-3.28
2023-02-24T07:54:13.743Z,-3.32
2023-02-24T07:56:57.269Z,-3.41
2023-02-24T07:59:33.149Z,-3.35
2023-02-24T08:02:05.436Z,-3.39
2023-02-24T08:04:37.130Z,-3.38
2023-02-24T08:07:06.072Z,-3.37
2023-02-24T08:10:07.850Z,-3.27
2023-02-24T08:12:43.311Z,-3.43
2023-02-24T08:15:24.522Z,-3.36
2023-02-24T08:18:00.202Z,-3.51
2023-02-24T08:20:37.011Z,-3.53
2023-02-24T08:23:09.450Z,-3.61
2023-02-24T08:25:39.223Z,-3.46
2023-02-24T08:28:14.055Z,-3.64
2023-02-24T08:30:47.990Z,-3.44
2023-02-24T08:33:30.817Z,-3.48
2023-02-24T08:36:03.057Z,-3.41
2023-02-24T08:38:45.371Z,-3.40
2023-02-24T08:41:21.869Z,-3.47
2023-02-24T08:43:51.351Z,-3.69
2023-02-24T08:46:33.615Z,-3.47
2023-02-24T08:49:02.760Z,-3.52
2023-02-24T08:51:37.763Z,-3.53
2023-02-24T08:54:16.117Z,-3.57
2023-02-24T08:56:49.965Z,-3.57
2023-02-24T08:59:38.662Z,-3.59
2023-02-24T09:02:25.773Z,-3.64
2023-02-24T09:05:06.147Z,-3.61
2023-02-24T09:07:44.378Z,-3.63
2023-02-24T09:10:19.378Z,-3.80
2023-02-24T09:12:49.950Z,-3.72
2023-02-24T09:15:21.405Z,-3.83
2023-02-24T09:18:02.147Z,-3.74
2023-02-24T09:20:49.452Z,-3.64
2023-02-24T09:23:21.114Z,-3.78
2023-02-24T09:25:55.057Z,-3.83
2023-02-24T09:28:30.037Z,-3.62
2023-02-24T09:31:07.767Z,-3.79
2023-02-24T09:33:44.747Z,-3.83
2023-02-24T09:36:36.788Z,-3.87
2023-02-24T09:39:05.749Z,-3.70
2023-02-24T09:42:18.529Z,-3.81
2023-02-24T09:44:56.456Z,-3.75
2023-02-24T09:47:43.801Z,-3.75
2023-02-24T09:50:46.924Z,-3.93
2023-02-24T09:53:18.200Z,-3.74
2023-02-24T09:56:28.829Z,-4.05
2023-02-24T09:59:27.674Z,-3.92
2023-02-24T10:02:15.037Z,-4.11
2023-02-24T10:05:28.167Z,-4.24
2023-02-24T10:07:58.879Z,-4.19
2023-02-24T10:10:36.652Z,-4.25
2023-02-24T10:13:31.010Z,-4.04
2023-02-24T10:16:11.713Z,-4.15
2023-02-24T10:19:15.548Z,-4.06
2023-02-24T10:22:09.875Z,-4.25
2023-02-24T10:24:48.918Z,-3.97
2023-02-24T10:28:08.614Z,-4.27
2023-02-24T10:31:27.007Z,-4.36
2023-02-24T10:34:11.164Z,-4.26
2023-02-24T10:36:41.680Z,-4.25
2023-02-24T10:39:16.444Z,-4.53
2023-02-24T10:41:58.059Z,-4.40
2023-02-24T10:44:37.549Z,-4.46
2023-02-24T10:47:13.833Z,-3.99
2023-02-24T10:49:58.878Z,-4.30
2023-02-24T10:52:38.308Z,-4.09
2023-02-24T10:55:44.104Z,-4.44
2023-02-24T10:58:53.808Z,-4.25
2023-02-24T11:01:59.850Z,-4.18
2023-02-24T11:05:05.453Z,-4.34
2023-02-24T11:07:44.750Z,-4.15
2023-02-24T11:10:15.793Z,-4.34
2023-02-24T11:13:09.864Z,-4.36
2023-02-24T11:16:04.790Z,-4.38
2023-02-24T11:18:34.833Z,-4.33
2023-02-24T11:21:08.335Z,-4.47
2023-02-24T11:23:51.379Z,-4.70
2023-02-24T11:26:46.473Z,-4.72
2023-02-24T11:29:57.044Z,-4.76
2023-02-24T11:33:12.991Z,-4.89
2023-02-24T11:35:50.005Z,-4.71
2023-02-24T11:38:43.795Z,-4.72
2023-02-24T11:41:26.794Z,-4.85
2023-02-24T11:44:35.456Z,-4.93
2023-02-24T11:47:10.466Z,-4.57
2023-02-24T11:50:22.468Z,-4.98
2023-02-24T11:52:54.237Z,-5.00
2023-02-24T11:55:44.821Z,-4.84
2023-02-24T11:58:31.092Z,-4.78
2023-02-24T12:01:11.536Z,-4.62
2023-02-24T12:04:06.379Z,-4.67
2023-02-24T12:06:44.785Z,-4.73
2023-02-24T12:09:27.660Z,-4.76
2023-02-24T12:12:24.420Z,-4.79
2023-02-24T12:15:01.885Z,-5.02
2023-02-24T12:18:05.112Z,-5.00
2023-02-24T12:20:51.838Z,-4.73
2023-02-24T12:23:24.905Z,-4.85
2023-02-24T12:26:21.587Z,-4.93
2023-02-24T12:28:59.046Z,-4.73
2023-02-24T12:31:30.879Z,-4.81
2023-02-24T12:34:13.264Z,-4.95
2023-02-24T12:36:59.466Z,-4.95
2023-02-24T12:39:55.839Z,-4.68
2023-02-24T12:42:46.579Z,-4.66
2023-02-24T12:45:27.213Z,-4.69
2023-02-24T12:48:30.809Z,-4.73
2023-02-24T12:51:25.422Z,-4.59
2023-02-24T12:54:09.841Z,-4.36
2023-02-24T12:56:58.435Z,-4.80
2023-02-24T12:59:32.914Z,-4.64
2023-02-24T13:02:09.198Z,-4.78
2023-02-24T13:04:50.443Z,-4.80
2023-02-24T13:07:37.928Z,-4.78
2023-02-24T13:10:12.793Z,-4.80
2023-02-24T13:12:56.787Z,-4.43
2023-02-24T13:15:28.520Z,-4.69
2023-02-24T13:17:58.436Z,-4.74
2023-02-24T13:20:39.548Z,-4.78
2023-02-24T13:23:35.667Z,-4.72
2023-02-24T13:26:05.109Z,-4.25
2023-02-24T13:28:39.410Z,-4.52
2023-02-24T13:31:14.182Z,-4.42
2023-02-24T13:33:49.266Z,-4.41
2023-02-24T13:36:26.629Z,-4.65
2023-02-24T13:39:07.507Z,-5.31
2023-02-24T13:41:41.398Z,-5.03
2023-02-24T13:44:30.766Z,-5.19
2023-02-24T13:47:21.033Z,-5.49
2023-02-24T13:50:30.237Z,-5.38
2023-02-24T13:53:24.522Z,-5.14
2023-02-24T13:56:27.759Z,-4.92
2023-02-24T13:59:14.813Z,-5.14
2023-02-24T14:02:03.015Z,-5.01
2023-02-24T14:04:34.658Z,-4.90
2023-02-24T14:07:38.418Z,-4.90
2023-02-24T14:10:22.299Z,-5.00
2023-02-24T14:12:57.204Z,-4.81
2023-02-24T14:15:28.834Z,-5.05
2023-02-24T14:18:06.437Z,-5.03
2023-02-24T14:20:38.837Z,-5.11
2023-02-24T14:23:24.257Z,-5.17
2023-02-24T14:26:13.471Z,-5.10
2023-02-24T14:28:43.532Z,-5.15
2023-02-24T14:31:17.731Z,-5.28
2023-02-24T14:33:47.204Z,-5.18
2023-02-24T14:36:20.843Z,-5.63
2023-02-24T14:39:14.888Z,-5.44
2023-02-24T14:41:44.634Z,-5.52
2023-02-24T14:44:27.300Z,-5.74
2023-02-24T14:47:00.681Z,-5.58
2023-02-24T14:49:35.360Z,-5.50
2023-02-24T14:52:32.887Z,-5.44
2023-02-24T14:55:28.892Z,-5.65
2023-02-24T14:58:07.734Z,-5.88
2023-02-24T15:00:42.675Z,-5.82
2023-02-24T15:03:23.061Z,-5.92
2023-02-24T15:05:55.846Z,-5.98
2023-02-24T15:08:39.842Z,-5.68
2023-02-24T15:11:17.842Z,-5.60
2023-02-24T15:14:02.577Z,-5.47
2023-02-24T15:16:39.363Z,-5.47
2023-02-24T15:19:32.837Z,-5.39
2023-02-24T15:22:03.166Z,-5.83
2023-02-24T15:24:35.895Z,-5.63
2023-02-24T15:27:29.073Z,-5.85
2023-02-24T15:30:07.748Z,-5.14
2023-02-24T15:32:41.890Z,-5.38
2023-02-24T15:35:27.604Z,-5.57
2023-02-24T15:37:56.950Z,-5.22
2023-02-24T15:40:27.983Z,-5.04
2023-02-24T15:43:12.737Z,-4.98
2023-02-24T15:45:41.686Z,-4.90
2023-02-24T15:48:31.407Z,-4.84
2023-02-24T15:51:06.670Z,-4.92
2023-02-24T15:53:35.661Z,-5.58
2023-02-24T15:56:04.625Z,-5.68
2023-02-24T15:58:35.533Z,-5.27
2023-02-24T16:01:07.073Z,-5.15
2023-02-24T16:03:36.311Z,-5.84
2023-02-24T16:06:05.535Z,-5.52
2023-02-24T16:08:45.384Z,-5.51
2023-02-24T16:11:18.019Z,-5.49
2023-02-24T16:13:55.249Z,-5.39
2023-02-24T16:16:25.781Z,-5.64
2023-02-24T16:18:55.220Z,-5.37
2023-02-24T16:21:24.326Z,-5.58
2023-02-24T16:23:53.722Z,-5.15
2023-02-24T16:26:28.921Z,-5.03
2023-02-24T16:29:02.224Z,-5.33
2023-02-24T16:31:33.893Z,-5.27
2023-02-24T16:34:03.163Z,-4.95
2023-02-24T16:36:32.632Z,-4.77
2023-02-24T16:39:02.785Z,-4.97
2023-02-24T16:41:32.194Z,-4.78
2023-02-24T16:44:01.203Z,-4.73
2023-02-24T16:46:38.467Z,-4.66
2023-02-24T16:49:13.195Z,-4.80
2023-02-24T16:51:42.389Z,-4.41
2023-02-24T16:54:11.279Z,-4.57
2023-02-24T16:56:40.250Z,-4.54
2023-02-24T16:59:09.435Z,-4.31
2023-02-24T17:01:38.746Z,-4.32
2023-02-24T17:04:10.601Z,-4.61
2023-02-24T17:06:39.535Z,-4.37
2023-02-24T17:09:09.260Z,-4.05
2023-02-24T17:11:38.326Z,-3.82
2023-02-24T17:14:10.951Z,-4.08
2023-02-24T17:16:45.380Z,-3.77
2023-02-24T17:19:14.991Z,-3.68
2023-02-24T17:21:46.105Z,-3.39
2023-02-24T17:24:18.231Z,-3.77
2023-02-24T17:26:47.757Z,-3.39
2023-02-24T17:29:16.713Z,-3.13
2023-02-24T17:31:45.912Z,-3.01
2023-02-24T17:34:15.182Z,-2.82
2023-02-24T17:36:44.038Z,-2.67
2023-02-24T17:39:15.394Z,-2.90
2023-02-24T17:41:44.586Z,-2.57
2023-02-24T17:44:13.539Z,-2.46
2023-02-24T17:46:42.697Z,-2.55
2023-02-24T17:49:11.712Z,-2.20
2023-02-24T17:51:40.670Z,-2.00
2023-02-24T17:54:09.863Z,-2.04
2023-02-24T17:56:38.831Z,-1.92
2023-02-24T17:59:07.693Z,-1.97
2023-02-24T18:01:36.648Z,-1.78
2023-02-24T18:04:08.345Z,-1.80
2023-02-24T18:06:37.591Z,-1.62
2023-02-24T18:09:09.082Z,-1.39
2023-02-24T18:11:40.661Z,-1.09
2023-02-24T18:14:09.622Z,-0.95
2023-02-24T18:16:41.154Z,-0.89
2023-02-24T18:19:12.673Z,-1.13
2023-02-24T18:21:41.694Z,-0.81
2023-02-24T18:24:10.822Z,-0.48
2023-02-24T18:26:42.840Z,-0.34
2023-02-24T18:29:11.840Z,-0.26
2023-02-24T18:31:40.915Z,-0.08
2023-02-24T18:34:10.070Z,0.22
2023-02-24T18:46:22.561Z,0.45
2023-02-24T18:48:57.654Z,-0.24
2023-02-24T18:51:27.649Z,0.25
2023-02-24T18:53:59.421Z,0.79
2023-02-24T18:56:31.581Z,1.09
2023-02-24T18:59:06.215Z,0.27
2023-02-24T19:01:43.590Z,0.92
2023-02-24T19:04:27.261Z,1.34
2023-02-24T19:06:56.857Z,0.42
2023-02-24T19:09:26.004Z,1.26
2023-02-24T19:11:55.050Z,1.65
2023-02-24T19:14:29.572Z,1.56
2023-02-24T19:17:05.689Z,1.61
2023-02-24T19:19:35.360Z,1.88
2023-02-24T19:22:04.815Z,1.49
2023-02-24T19:24:34.003Z,1.84
2023-02-24T19:27:02.975Z,2.03
2023-02-24T19:29:31.950Z,2.16
2023-02-24T19:32:01.165Z,2.35
2023-02-24T19:34:30.187Z,2.07
2023-02-24T19:36:59.319Z,2.85
2023-02-24T19:39:30.696Z,3.00
2023-02-24T19:41:59.764Z,2.18
2023-02-24T19:44:30.966Z,2.72
2023-02-24T19:47:00.003Z,2.26
2023-02-24T19:49:29.080Z,2.65
2023-02-24T19:52:00.064Z,2.68
2023-02-24T19:54:30.915Z,2.71
2023-02-24T19:56:59.933Z,3.56
2023-02-24T19:59:30.022Z,3.76
2023-02-24T20:01:59.006Z,3.99
2023-02-24T20:04:28.076Z,2.72
2023-02-24T20:06:57.370Z,2.38
2023-02-24T20:09:27.748Z,3.48
2023-02-24T20:12:05.956Z,3.45
2023-02-24T20:14:34.950Z,3.88
2023-02-24T20:17:03.931Z,4.19
2023-02-24T20:19:34.383Z,4.18
2023-02-24T20:22:03.583Z,4.07
2023-02-24T20:24:35.897Z,4.37
2023-02-24T20:27:06.697Z,4.24
2023-02-24T20:29:38.828Z,4.90
2023-02-24T20:32:08.199Z,4.49
2023-02-24T20:34:38.835Z,4.79
2023-02-24T20:37:07.917Z,5.03
2023-02-24T20:39:37.294Z,4.85
2023-02-24T20:42:06.703Z,4.92
2023-02-24T20:44:35.663Z,4.96
2023-02-24T20:47:07.179Z,4.87
2023-02-24T20:49:45.224Z,4.85
2023-02-24T20:52:14.490Z,5.14
2023-02-24T20:54:55.089Z,5.24
2023-02-24T20:57:24.080Z,5.16
2023-02-24T21:00:03.048Z,5.20
2023-02-24T21:02:32.642Z,4.85
2023-02-24T21:05:01.985Z,5.27
2023-02-24T21:07:34.743Z,5.49
2023-02-24T21:10:04.997Z,5.83
2023-02-24T21:12:34.263Z,5.16
2023-02-24T21:15:04.276Z,5.64
2023-02-24T21:17:35.146Z,5.71
2023-02-24T21:20:04.321Z,6.53
2023-02-24T21:22:34.190Z,6.77
2023-02-24T21:25:03.370Z,6.49
2023-02-24T21:27:32.248Z,7.04
2023-02-24T21:30:01.341Z,7.23
2023-02-24T21:32:30.300Z,7.13
2023-02-24T21:34:59.397Z,6.67
2023-02-24T21:37:29.008Z,6.78
2023-02-24T21:39:57.941Z,6.81
2023-02-24T21:42:29.506Z,6.60
2023-02-24T21:45:03.114Z,6.86
2023-02-24T21:47:32.903Z,6.83
2023-02-24T21:50:04.902Z,6.74
2023-02-24T21:52:37.133Z,6.64
2023-02-24T21:55:07.731Z,6.89
2023-02-24T21:57:41.377Z,7.08
2023-02-24T22:00:21.662Z,7.20
2023-02-24T22:02:55.261Z,7.43
2023-02-24T22:05:32.473Z,7.25
2023-02-24T22:08:01.549Z,7.38
2023-02-24T22:10:30.514Z,7.36
2023-02-24T22:12:59.572Z,7.65
2023-02-24T22:15:28.704Z,7.19
2023-02-24T22:17:58.699Z,7.66
2023-02-24T22:20:27.636Z,8.01
2023-02-24T22:22:56.551Z,7.59
2023-02-24T22:25:25.657Z,7.76
2023-02-24T22:27:54.830Z,8.12
2023-02-24T22:30:23.933Z,7.90
2023-02-24T22:32:53.328Z,8.07
2023-02-24T22:35:22.294Z,8.15
2023-02-24T22:37:51.332Z,7.98
2023-02-24T22:40:20.896Z,8.08
2023-02-24T22:42:50.377Z,8.06
2023-02-24T22:45:21.498Z,8.06
2023-02-24T22:47:50.446Z,7.71
2023-02-24T22:50:20.500Z,8.08
2023-02-24T22:52:50.051Z,8.57
2023-02-24T22:55:20.466Z,8.59
2023-02-24T22:57:49.422Z,8.53
2023-02-24T23:00:22.252Z,8.25
2023-02-24T23:02:51.317Z,8.02
2023-02-24T23:05:20.254Z,8.32
2023-02-24T23:07:49.325Z,8.77
2023-02-24T23:10:18.546Z,8.47
2023-02-24T23:12:47.746Z,8.76
2023-02-24T23:15:17.262Z,8.82
2023-02-24T23:17:46.237Z,8.37
2023-02-24T23:20:15.094Z,8.08
2023-02-24T23:22:44.256Z,7.05
2023-02-24T23:25:15.599Z,8.07
2023-02-24T23:27:44.909Z,7.09
2023-02-24T23:30:14.072Z,7.15
2023-02-24T23:32:45.782Z,7.18
2023-02-24T23:35:17.910Z,7.22
2023-02-24T23:37:48.485Z,6.87
2023-02-24T23:40:17.508Z,5.92
2023-02-24T23:42:47.175Z,5.65
2023-02-24T23:45:16.213Z,6.25
2023-02-24T23:47:47.201Z,5.38
2023-02-24T23:50:18.321Z,5.67
2023-02-24T23:52:47.187Z,5.51
2023-02-24T23:55:16.805Z,5.59
2023-02-24T23:57:45.769Z,4.51
